createdAt,value
2023-01-13T00:00:07.568Z,0.82
2023-01-13T00:02:44.334Z,0.65
2023-01-13T00:05:19.200Z,0.40
2023-01-13T00:07:51.208Z,0.40
2023-01-13T00:10:19.746Z,0.32
2023-01-13T00:12:51.480Z,0.63
2023-01-13T00:15:20.105Z,0.70
2023-01-13T00:17:49.015Z,0.40
2023-01-13T00:20:18.250Z,0.50
2023-01-13T00:22:51.148Z,0.55
2023-01-13T00:25:19.636Z,0.50
2023-01-13T00:27:47.956Z,0.65
2023-01-13T00:30:30.357Z,0.40
2023-01-13T00:32:58.795Z,0.50
2023-01-13T00:35:27.257Z,0.65
2023-01-13T00:38:03.800Z,0.95
2023-01-13T00:40:42.375Z,0.60
2023-01-13T00:43:25.154Z,0.73
2023-01-13T00:45:53.597Z,0.52
2023-01-13T00:48:23.729Z,0.65
2023-01-13T00:50:57.488Z,1.30
2023-01-13T00:53:28.475Z,0.77
2023-01-13T00:56:04.024Z,0.95
2023-01-13T00:58:34.528Z,0.90
2023-01-13T01:01:04.421Z,0.70
2023-01-13T01:03:33.354Z,0.93
2023-01-13T01:06:07.601Z,1.60
2023-01-13T01:08:40.336Z,1.15
2023-01-13T01:11:12.187Z,0.90
2023-01-13T01:13:41.345Z,1.73
2023-01-13T01:16:12.701Z,1.08
2023-01-13T01:18:45.010Z,1.05
2023-01-13T01:21:14.184Z,0.93
2023-01-13T01:23:44.441Z,1.10
2023-01-13T01:26:16.234Z,1.00
2023-01-13T01:28:46.772Z,1.00
2023-01-13T01:31:18.446Z,1.00
2023-01-13T01:33:47.542Z,1.20
2023-01-13T01:36:18.215Z,0.80
2023-01-13T01:38:48.615Z,0.93
2023-01-13T01:41:19.722Z,1.10
2023-01-13T01:44:02.961Z,1.40
2023-01-13T01:46:35.167Z,1.67
2023-01-13T01:49:14.269Z,1.10
2023-01-13T01:51:47.359Z,1.15
2023-01-13T01:54:23.647Z,1.35
2023-01-13T01:56:53.073Z,1.10
2023-01-13T01:59:21.396Z,1.33
2023-01-13T02:01:50.302Z,1.10
2023-01-13T02:04:25.172Z,0.70
2023-01-13T02:06:54.683Z,1.48
2023-01-13T02:09:27.628Z,1.35
2023-01-13T02:12:13.279Z,0.85
2023-01-13T02:14:43.175Z,1.23
2023-01-13T02:17:31.730Z,1.00
2023-01-13T02:20:29.763Z,1.02
2023-01-13T02:24:22.588Z,1.20
2023-01-13T02:27:48.993Z,1.73
2023-01-13T02:30:49.072Z,1.30
2023-01-13T02:33:40.263Z,0.98
2023-01-13T02:36:21.001Z,1.17
2023-01-13T02:38:57.688Z,1.63
2023-01-13T02:41:54.950Z,1.05
2023-01-13T02:44:29.813Z,1.48
2023-01-13T02:47:05.686Z,1.13
2023-01-13T02:49:39.776Z,1.20
2023-01-13T02:52:14.083Z,1.27
2023-01-13T02:54:50.283Z,1.20
2023-01-13T02:57:20.642Z,1.00
2023-01-13T02:59:50.304Z,1.20
2023-01-13T03:02:22.556Z,1.67
2023-01-13T03:04:55.364Z,1.25
2023-01-13T03:10:37.126Z,1.50
2023-01-13T03:13:22.040Z,1.73
2023-01-13T03:16:01.479Z,1.73
2023-01-13T03:18:44.900Z,1.48
2023-01-13T03:21:22.493Z,1.85
2023-01-13T03:23:57.976Z,1.63
2023-01-13T03:26:34.165Z,1.55
2023-01-13T03:29:15.391Z,1.67
2023-01-13T03:31:56.679Z,1.65
2023-01-13T03:34:34.127Z,3.30
2023-01-13T03:37:08.052Z,1.90
2023-01-13T03:39:41.561Z,2.17
2023-01-13T03:42:14.949Z,2.35
2023-01-13T03:44:48.802Z,2.72
2023-01-13T03:47:26.397Z,2.17
2023-01-13T03:50:01.350Z,3.42
2023-01-13T03:52:34.291Z,2.55
2023-01-13T03:55:08.575Z,2.35
2023-01-13T03:57:41.740Z,2.63
2023-01-13T04:00:14.445Z,3.20
2023-01-13T04:05:20.544Z,3.35
2023-01-13T04:07:57.369Z,2.55
2023-01-13T04:10:32.182Z,2.75
2023-01-13T04:13:04.883Z,3.08
2023-01-13T04:15:38.430Z,3.35
2023-01-13T04:18:19.286Z,2.90
2023-01-13T04:20:51.281Z,3.08
2023-01-13T04:23:23.598Z,3.67
2023-01-13T04:25:52.862Z,3.47
2023-01-13T04:28:22.326Z,3.00
2023-01-13T04:30:51.141Z,2.53
2023-01-13T04:33:20.660Z,2.65
2023-01-13T04:35:50.350Z,2.88
2023-01-13T04:38:21.554Z,2.60
2023-01-13T04:40:49.830Z,2.95
2023-01-13T04:43:18.225Z,2.53
2023-01-13T04:45:46.508Z,3.15
2023-01-13T04:48:14.758Z,2.58
2023-01-13T04:50:43.673Z,3.05
2023-01-13T04:53:13.208Z,2.65
2023-01-13T04:55:41.591Z,2.25
2023-01-13T04:58:12.098Z,2.13
2023-01-13T05:00:40.606Z,2.92
2023-01-13T05:03:08.918Z,2.60
2023-01-13T05:05:37.889Z,2.45
2023-01-13T05:08:06.732Z,3.00
2023-01-13T05:10:36.400Z,3.88
2023-01-13T05:13:22.596Z,2.17
2023-01-13T05:16:19.747Z,2.90
2023-01-13T05:18:48.007Z,2.15
2023-01-13T05:21:30.165Z,2.17
2023-01-13T05:24:15.948Z,3.42
2023-01-13T05:26:45.529Z,1.85
2023-01-13T05:29:13.739Z,2.30
2023-01-13T05:31:41.917Z,1.75
2023-01-13T05:34:10.090Z,2.13
2023-01-13T05:36:38.249Z,2.08
2023-01-13T05:39:06.431Z,2.90
2023-01-13T05:41:52.168Z,1.95
2023-01-13T05:44:21.710Z,3.22
2023-01-13T05:46:50.023Z,2.05
2023-01-13T05:49:18.277Z,2.70
2023-01-13T05:51:46.707Z,2.53
2023-01-13T05:54:17.666Z,2.65
2023-01-13T05:56:45.817Z,2.28
2023-01-13T05:59:14.121Z,2.00
2023-01-13T06:01:43.701Z,2.25
2023-01-13T06:04:11.889Z,1.77
2023-01-13T06:06:40.075Z,2.10
2023-01-13T06:09:08.391Z,2.15
2023-01-13T06:11:36.787Z,2.35
2023-01-13T06:14:04.983Z,3.30
2023-01-13T06:16:33.228Z,2.75
2023-01-13T06:19:02.849Z,2.80
2023-01-13T06:21:33.230Z,1.92
2023-01-13T06:24:01.656Z,1.73
2023-01-13T06:26:34.573Z,1.98
2023-01-13T06:29:02.922Z,2.25
2023-01-13T06:31:32.045Z,1.63
2023-01-13T06:34:08.462Z,1.55
2023-01-13T06:36:39.372Z,2.10
2023-01-13T06:39:09.552Z,1.63
2023-01-13T06:41:55.526Z,1.48
2023-01-13T06:44:25.485Z,1.60
2023-01-13T06:46:53.892Z,1.60
2023-01-13T06:49:23.471Z,1.50
2023-01-13T06:51:51.712Z,1.60
2023-01-13T06:54:19.919Z,1.67
2023-01-13T06:56:48.077Z,1.85
2023-01-13T06:59:16.362Z,1.90
2023-01-13T07:01:44.990Z,1.50
2023-01-13T07:04:13.673Z,1.63
2023-01-13T07:06:43.140Z,1.50
2023-01-13T07:09:11.752Z,2.50
2023-01-13T07:11:40.101Z,1.98
2023-01-13T07:14:26.117Z,1.75
2023-01-13T07:16:55.123Z,1.88
2023-01-13T07:19:24.229Z,1.27
2023-01-13T07:21:54.420Z,2.10
2023-01-13T07:24:23.434Z,2.30
2023-01-13T07:26:53.145Z,2.03
2023-01-13T07:29:21.542Z,2.08
2023-01-13T07:31:50.361Z,1.85
2023-01-13T07:34:18.790Z,2.20
2023-01-13T07:36:46.933Z,2.35
2023-01-13T07:39:16.462Z,2.38
2023-01-13T07:42:02.250Z,2.53
2023-01-13T07:44:30.465Z,2.38
2023-01-13T07:46:58.645Z,3.85
2023-01-13T07:49:26.908Z,4.13
2023-01-13T07:51:55.089Z,2.70
2023-01-13T07:54:39.129Z,3.20
2023-01-13T07:57:08.150Z,3.10
2023-01-13T07:59:37.022Z,3.55
2023-01-13T08:02:05.537Z,3.15
2023-01-13T08:04:34.737Z,3.70
2023-01-13T08:07:02.949Z,3.33
2023-01-13T08:09:35.074Z,3.88
2023-01-13T08:12:20.808Z,3.90
2023-01-13T08:14:50.135Z,3.90
2023-01-13T08:17:20.466Z,3.47
2023-01-13T08:19:48.869Z,4.07
2023-01-13T08:22:17.118Z,4.28
2023-01-13T08:24:46.693Z,4.35
2023-01-13T08:27:15.096Z,3.60
2023-01-13T08:29:43.321Z,4.72
2023-01-13T08:32:11.503Z,4.68
2023-01-13T08:34:39.771Z,3.53
2023-01-13T08:37:08.131Z,3.88
2023-01-13T08:39:36.468Z,4.82
2023-01-13T08:42:06.215Z,5.15
2023-01-13T08:44:34.764Z,5.25
2023-01-13T08:47:05.236Z,4.13
2023-01-13T08:49:33.538Z,4.28
2023-01-13T08:52:01.767Z,3.55
2023-01-13T08:54:30.069Z,3.38
2023-01-13T08:56:58.350Z,4.47
2023-01-13T08:59:28.058Z,4.30
2023-01-13T09:01:56.419Z,4.75
2023-01-13T09:04:27.641Z,5.13
2023-01-13T09:06:56.858Z,4.57
2023-01-13T09:09:27.687Z,5.55
2023-01-13T09:12:13.612Z,4.65
2023-01-13T09:14:43.361Z,3.78
2023-01-13T09:17:11.634Z,5.22
2023-01-13T09:19:39.820Z,5.13
2023-01-13T09:22:11.164Z,5.97
2023-01-13T09:24:39.491Z,5.07
2023-01-13T09:27:07.749Z,4.63
2023-01-13T09:29:35.910Z,6.53
2023-01-13T09:32:06.134Z,4.45
2023-01-13T09:34:52.274Z,3.67
2023-01-13T09:37:20.404Z,3.80
2023-01-13T09:39:48.643Z,4.10
2023-01-13T09:42:45.459Z,4.30
2023-01-13T09:45:18.596Z,4.35
2023-01-13T09:47:57.584Z,4.75
2023-01-13T09:50:49.308Z,4.07
2023-01-13T09:53:23.643Z,4.22
2023-01-13T09:55:52.819Z,4.60
2023-01-13T09:58:21.545Z,4.00
2023-01-13T10:01:06.101Z,4.70
2023-01-13T10:03:36.720Z,5.95
2023-01-13T10:06:14.684Z,4.38
2023-01-13T10:08:45.035Z,4.63
2023-01-13T10:11:37.739Z,3.75
2023-01-13T10:14:14.917Z,5.85
2023-01-13T10:16:51.540Z,3.72
2023-01-13T10:19:29.235Z,6.05
2023-01-13T10:22:25.425Z,4.07
2023-01-13T10:25:28.635Z,5.25
2023-01-13T10:30:40.119Z,3.85
2023-01-13T10:33:14.783Z,5.47
2023-01-13T10:36:01.838Z,5.25
2023-01-13T10:38:38.049Z,4.85
2023-01-13T10:41:18.025Z,5.93
2023-01-13T10:43:58.306Z,4.00
2023-01-13T10:46:26.637Z,4.47
2023-01-13T10:48:56.947Z,5.47
2023-01-13T10:51:29.758Z,4.70
2023-01-13T10:54:02.613Z,5.22
2023-01-13T10:56:34.011Z,5.57
2023-01-13T10:59:18.317Z,4.72
2023-01-13T11:02:01.197Z,4.50
2023-01-13T11:04:37.865Z,3.28
2023-01-13T11:07:21.599Z,5.85
2023-01-13T11:09:50.104Z,5.38
2023-01-13T11:12:33.580Z,4.15
2023-01-13T11:15:05.254Z,5.03
2023-01-13T11:17:40.399Z,4.32
2023-01-13T11:20:20.524Z,5.47
2023-01-13T11:22:52.940Z,4.97
2023-01-13T11:25:31.621Z,4.28
2023-01-13T11:28:07.035Z,4.30
2023-01-13T11:30:44.397Z,4.38
2023-01-13T11:33:30.527Z,5.57
2023-01-13T11:36:09.764Z,4.28
2023-01-13T11:38:50.532Z,4.10
2023-01-13T11:41:37.059Z,4.35
2023-01-13T11:44:18.767Z,3.00
2023-01-13T11:46:51.093Z,4.32
2023-01-13T11:49:27.151Z,3.80
2023-01-13T11:52:05.010Z,4.15
2023-01-13T11:55:04.286Z,4.65
2023-01-13T11:58:01.865Z,3.75
2023-01-13T12:00:51.542Z,4.75
2023-01-13T12:03:32.115Z,4.85
2023-01-13T12:06:14.724Z,3.67
2023-01-13T12:09:11.919Z,4.18
2023-01-13T12:12:11.776Z,4.03
2023-01-13T12:14:55.409Z,4.63
2023-01-13T12:17:48.231Z,4.32
2023-01-13T12:20:30.037Z,3.80
2023-01-13T12:23:02.631Z,4.53
2023-01-13T12:28:13.162Z,4.63
2023-01-13T12:30:46.851Z,4.72
2023-01-13T12:33:26.444Z,5.00
2023-01-13T12:36:05.199Z,4.53
2023-01-13T12:38:37.885Z,4.78
2023-01-13T12:44:06.376Z,3.92
2023-01-13T12:46:56.934Z,4.60
2023-01-13T12:49:29.294Z,3.90
2023-01-13T12:52:19.856Z,3.88
2023-01-13T12:55:18.868Z,3.58
2023-01-13T12:58:16.969Z,4.82
2023-01-13T13:01:01.942Z,3.50
2023-01-13T13:03:34.681Z,4.75
2023-01-13T13:09:03.261Z,5.57
2023-01-13T13:12:00.243Z,5.22
2023-01-13T13:15:04.761Z,5.30
2023-01-13T13:18:03.517Z,5.55
2023-01-13T13:20:59.041Z,4.82
2023-01-13T13:24:04.731Z,5.43
2023-01-13T13:26:45.666Z,3.72
2023-01-13T13:29:31.717Z,4.55
2023-01-13T13:32:42.192Z,3.97
2023-01-13T13:35:36.398Z,3.70
2023-01-13T13:38:40.717Z,5.35
2023-01-13T13:41:33.040Z,5.47
2023-01-13T13:44:21.493Z,5.85
2023-01-13T13:46:50.284Z,3.97
2023-01-13T13:49:21.188Z,2.80
2023-01-13T13:52:03.248Z,2.83
2023-01-13T13:54:32.523Z,3.78
2023-01-13T13:57:00.969Z,3.83
2023-01-13T13:59:30.944Z,5.15
2023-01-13T14:02:03.628Z,5.15
2023-01-13T14:04:35.414Z,4.10
2023-01-13T14:07:20.621Z,3.83
2023-01-13T14:09:54.134Z,5.70
2023-01-13T14:12:28.384Z,3.40
2023-01-13T14:14:57.534Z,4.95
2023-01-13T14:17:29.266Z,4.15
2023-01-13T14:20:02.473Z,4.95
2023-01-13T14:22:33.072Z,4.68
2023-01-13T14:25:02.676Z,4.03
2023-01-13T14:27:31.957Z,5.00
2023-01-13T14:30:01.979Z,5.07
2023-01-13T14:32:36.358Z,4.75
2023-01-13T14:35:08.233Z,4.20
2023-01-13T14:37:40.836Z,4.90
2023-01-13T14:43:17.763Z,4.78
2023-01-13T14:45:58.217Z,5.28
2023-01-13T14:48:35.434Z,5.65
2023-01-13T14:51:06.541Z,4.75
2023-01-13T14:53:43.281Z,4.85
2023-01-13T14:56:47.022Z,5.13
2023-01-13T14:59:51.761Z,7.35
2023-01-13T15:02:48.768Z,4.20
2023-01-13T15:05:49.147Z,5.07
2023-01-13T15:08:44.562Z,5.55
2023-01-13T15:11:25.213Z,6.53
2023-01-13T15:14:01.108Z,5.28
2023-01-13T15:16:33.861Z,5.30
2023-01-13T15:19:03.390Z,6.25
2023-01-13T15:21:31.678Z,6.60
2023-01-13T15:24:01.271Z,5.85
2023-01-13T15:26:31.144Z,5.40
2023-01-13T15:29:00.955Z,5.07
2023-01-13T15:31:29.976Z,5.35
2023-01-13T15:34:01.551Z,5.10
2023-01-13T15:36:31.738Z,6.10
2023-01-13T15:39:03.044Z,5.38
2023-01-13T15:41:48.931Z,5.47
2023-01-13T15:44:35.950Z,4.88
2023-01-13T15:47:11.040Z,5.55
2023-01-13T15:49:43.904Z,4.10
2023-01-13T15:52:21.470Z,4.60
2023-01-13T15:54:52.284Z,4.88
2023-01-13T15:57:24.688Z,4.07
2023-01-13T16:02:24.468Z,4.47
2023-01-13T16:04:53.762Z,4.72
2023-01-13T16:07:24.480Z,5.97
2023-01-13T16:09:54.230Z,5.40
2023-01-13T16:12:22.440Z,4.88
2023-01-13T16:14:50.605Z,8.18
2023-01-13T16:17:21.859Z,6.05
2023-01-13T16:19:50.594Z,5.25
2023-01-13T16:22:19.797Z,5.55
2023-01-13T16:24:48.665Z,5.13
2023-01-13T16:27:21.140Z,6.57
2023-01-13T16:29:50.859Z,4.90
2023-01-13T16:32:20.758Z,6.25
2023-01-13T16:34:49.075Z,7.18
2023-01-13T16:37:21.683Z,5.95
2023-01-13T16:39:50.298Z,7.30
2023-01-13T16:42:20.044Z,5.88
2023-01-13T16:44:49.701Z,5.70
2023-01-13T16:47:19.548Z,5.28
2023-01-13T16:49:47.990Z,5.20
2023-01-13T16:52:19.214Z,4.88
2023-01-13T16:54:48.771Z,5.63
2023-01-13T16:57:16.970Z,5.57
2023-01-13T16:59:46.566Z,4.97
2023-01-13T17:02:20.177Z,5.95
2023-01-13T17:04:49.235Z,6.03
2023-01-13T17:07:18.930Z,6.57
2023-01-13T17:10:19.941Z,5.13
2023-01-13T17:12:48.314Z,5.72
2023-01-13T17:15:20.305Z,5.88
2023-01-13T17:17:52.056Z,5.03
2023-01-13T17:20:20.770Z,4.57
2023-01-13T17:22:57.734Z,6.32
2023-01-13T17:25:26.442Z,7.60
2023-01-13T17:27:54.695Z,4.85
2023-01-13T17:30:26.387Z,4.72
2023-01-13T17:32:54.786Z,5.45
2023-01-13T17:35:24.939Z,5.05
2023-01-13T17:37:56.389Z,5.68
2023-01-13T17:40:24.749Z,5.68
2023-01-13T17:42:52.911Z,5.25
2023-01-13T17:45:21.118Z,5.72
2023-01-13T17:47:50.745Z,5.60
2023-01-13T17:50:19.572Z,5.15
2023-01-13T17:52:47.784Z,6.20
2023-01-13T17:55:16.218Z,6.13
2023-01-13T17:57:44.334Z,5.88
2023-01-13T18:00:14.060Z,5.20
2023-01-13T18:02:42.341Z,5.57
2023-01-13T18:05:12.666Z,7.10
2023-01-13T18:07:41.009Z,5.78
2023-01-13T18:10:11.666Z,5.47
2023-01-13T18:12:41.988Z,6.05
2023-01-13T18:15:11.277Z,5.47
2023-01-13T18:17:39.452Z,5.03
2023-01-13T18:20:25.690Z,5.70
2023-01-13T18:23:12.962Z,4.88
2023-01-13T18:25:59.259Z,5.88
2023-01-13T18:28:33.900Z,5.05
2023-01-13T18:31:02.750Z,4.57
2023-01-13T18:33:31.329Z,5.18
2023-01-13T18:36:15.767Z,5.95
2023-01-13T18:38:54.227Z,4.97
2023-01-13T18:41:43.297Z,5.40
2023-01-13T18:44:14.108Z,5.75
2023-01-13T18:46:45.533Z,6.07
2023-01-13T18:49:17.337Z,5.18
2023-01-13T18:51:45.786Z,6.53
2023-01-13T18:54:16.110Z,6.22
2023-01-13T18:57:10.597Z,6.10
2023-01-13T18:59:42.675Z,4.55
2023-01-13T19:02:21.654Z,7.55
2023-01-13T19:05:10.985Z,5.75
2023-01-13T19:07:43.917Z,6.03
2023-01-13T19:10:27.734Z,7.75
2023-01-13T19:12:56.350Z,6.22
2023-01-13T19:15:27.470Z,5.43
2023-01-13T19:18:22.076Z,5.63
2023-01-13T19:20:50.755Z,4.93
2023-01-13T19:23:21.934Z,5.07
2023-01-13T19:26:00.664Z,4.80
2023-01-13T19:28:31.843Z,4.85
2023-01-13T19:31:06.898Z,4.65
2023-01-13T19:33:40.939Z,4.60
2023-01-13T19:36:12.352Z,5.82
2023-01-13T19:38:40.721Z,7.35
2023-01-13T19:41:35.654Z,4.38
2023-01-13T19:44:21.556Z,6.32
2023-01-13T19:47:06.840Z,7.10
2023-01-13T19:50:02.888Z,6.28
2023-01-13T19:52:33.516Z,6.03
2023-01-13T19:55:11.844Z,6.35
2023-01-13T19:57:46.551Z,5.80
2023-01-13T20:00:47.007Z,6.30
2023-01-13T20:03:20.607Z,5.78
2023-01-13T20:05:49.416Z,6.93
2023-01-13T20:08:23.886Z,5.97
2023-01-13T20:11:12.590Z,6.38
2023-01-13T20:13:45.287Z,8.23
2023-01-13T20:18:55.400Z,9.40
2023-01-13T20:21:24.786Z,7.65
2023-01-13T20:23:58.406Z,8.03
2023-01-13T20:27:16.008Z,6.68
2023-01-13T20:29:45.924Z,7.93
2023-01-13T20:32:22.376Z,8.50
2023-01-13T20:34:58.420Z,6.70
2023-01-13T20:37:30.808Z,7.57
2023-01-13T20:40:04.177Z,6.68
2023-01-13T20:43:00.671Z,8.18
2023-01-13T20:45:45.650Z,6.83
2023-01-13T20:48:22.032Z,7.75
2023-01-13T20:50:57.903Z,7.40
2023-01-13T20:53:26.362Z,7.82
2023-01-13T20:55:59.347Z,8.25
2023-01-13T20:58:27.839Z,9.63
2023-01-13T21:01:01.640Z,6.93
2023-01-13T21:03:30.184Z,8.32
2023-01-13T21:05:59.204Z,6.80
2023-01-13T21:10:02.715Z,9.55
2023-01-13T21:13:03.160Z,6.18
2023-01-13T21:15:31.563Z,6.80
2023-01-13T21:18:20.751Z,9.10
2023-01-13T21:20:53.003Z,6.10
2023-01-13T21:23:24.253Z,8.15
2023-01-13T21:25:52.661Z,7.65
2023-01-13T21:28:22.744Z,6.68
2023-01-13T21:30:52.771Z,9.35
2023-01-13T21:33:26.747Z,8.07
2023-01-13T21:35:55.173Z,7.45
2023-01-13T21:38:26.762Z,8.45
2023-01-13T21:41:05.503Z,7.10
2023-01-13T21:43:51.766Z,7.60
2023-01-13T21:46:41.761Z,8.27
2023-01-13T21:49:12.087Z,8.05
2023-01-13T21:51:47.798Z,8.27
2023-01-13T21:54:16.144Z,7.50
2023-01-13T21:56:44.654Z,6.93
2023-01-13T21:59:16.358Z,6.47
2023-01-13T22:02:15.645Z,7.83
2023-01-13T22:04:36.960Z,7.88
2023-01-13T22:07:06.527Z,7.82
2023-01-13T22:09:34.891Z,7.50
2023-01-13T22:12:03.256Z,7.18
2023-01-13T22:14:31.826Z,7.47
2023-01-13T22:17:02.606Z,7.75
2023-01-13T22:19:52.537Z,8.18
2023-01-13T22:22:29.098Z,7.38
2023-01-13T22:25:01.325Z,7.47
2023-01-13T22:27:46.265Z,7.25
2023-01-13T22:30:23.046Z,6.83
2023-01-13T22:32:53.795Z,6.57
2023-01-13T22:35:25.561Z,6.13
2023-01-13T22:38:07.777Z,7.00
2023-01-13T22:40:41.895Z,7.10
2023-01-13T22:43:10.397Z,6.63
2023-01-13T22:45:39.069Z,6.95
2023-01-13T22:48:09.816Z,8.80
2023-01-13T22:50:38.167Z,6.05
2023-01-13T22:53:08.275Z,6.72
2023-01-13T22:55:36.856Z,7.18
2023-01-13T22:58:08.443Z,6.60
2023-01-13T23:00:36.902Z,7.25
2023-01-13T23:03:06.905Z,5.97
2023-01-13T23:05:35.418Z,6.03
2023-01-13T23:08:03.880Z,6.50
2023-01-13T23:10:36.241Z,5.32
2023-01-13T23:13:04.551Z,5.78
2023-01-13T23:15:34.977Z,7.70
2023-01-13T23:18:03.602Z,6.60
2023-01-13T23:20:32.371Z,6.53
2023-01-13T23:23:00.692Z,6.18
2023-01-13T23:25:28.982Z,6.65
2023-01-13T23:28:01.346Z,9.32
2023-01-13T23:30:29.688Z,7.13
2023-01-13T23:32:58.026Z,6.93
2023-01-13T23:35:26.768Z,6.00
2023-01-13T23:37:55.349Z,6.57
2023-01-13T23:40:29.798Z,6.07
2023-01-13T23:42:58.062Z,8.50
2023-01-13T23:45:27.795Z,7.25
2023-01-13T23:47:56.034Z,6.45
2023-01-13T23:50:26.353Z,6.60
2023-01-13T23:52:54.833Z,6.70
2023-01-13T23:55:26.309Z,6.78
2023-01-13T23:57:54.687Z,6.60
